sensor_id;sensor_type;location;lat;lon;timestamp;temperature;humidity
13817;DHT22;6979;52.116;5.286;2024-03-29T00:01:42;13.90;99.90
13817;DHT22;6979;52.116;5.286;2024-03-29T00:04:08;13.80;99.90
13817;DHT22;6979;52.116;5.286;2024-03-29T00:06:34;13.80;99.90
13817;DHT22;6979;52.116;5.286;2024-03-29T00:09:00;13.80;99.90
13817;DHT22;6979;52.116;5.286;2024-03-29T00:11:28;13.80;99.90
13817;DHT22;6979;52.116;5.286;2024-03-29T00:13:54;13.80;99.90
13817;DHT22;6979;52.116;5.286;2024-03-29T00:16:21;13.80;99.90
13817;DHT22;6979;52.116;5.286;2024-03-29T00:18:47;13.80;99.90
13817;DHT22;6979;52.116;5.286;2024-03-29T00:21:13;13.80;99.90
13817;DHT22;6979;52.116;5.286;2024-03-29T00:23:40;13.80;99.90
13817;DHT22;6979;52.116;5.286;2024-03-29T00:26:07;13.80;99.90
13817;DHT22;6979;52.116;5.286;2024-03-29T00:28:36;13.80;99.90
13817;DHT22;6979;52.116;5.286;2024-03-29T00:31:02;13.80;99.90
13817;DHT22;6979;52.116;5.286;2024-03-29T00:33:28;13.70;99.90
13817;DHT22;6979;52.116;5.286;2024-03-29T00:35:55;13.70;99.90
13817;DHT22;6979;52.116;5.286;2024-03-29T00:38:21;13.70;99.90
13817;DHT22;6979;52.116;5.286;2024-03-29T00:40:51;13.70;99.90
13817;DHT22;6979;52.116;5.286;2024-03-29T00:43:17;13.70;99.90
13817;DHT22;6979;52.116;5.286;2024-03-29T00:45:44;13.70;99.90
13817;DHT22;6979;52.116;5.286;2024-03-29T00:48:10;13.60;99.90
13817;DHT22;6979;52.116;5.286;2024-03-29T00:50:36;13.60;99.90
13817;DHT22;6979;52.116;5.286;2024-03-29T00:53:02;13.60;99.90
13817;DHT22;6979;52.116;5.286;2024-03-29T00:55:28;13.60;99.90
13817;DHT22;6979;52.116;5.286;2024-03-29T00:57:54;13.50;99.90
13817;DHT22;6979;52.116;5.286;2024-03-29T01:00:21;13.50;99.90
13817;DHT22;6979;52.116;5.286;2024-03-29T01:02:48;13.50;99.90
13817;DHT22;6979;52.116;5.286;2024-03-29T01:05:14;13.50;99.90
13817;DHT22;6979;52.116;5.286;2024-03-29T01:07:40;13.50;99.90
13817;DHT22;6979;52.116;5.286;2024-03-29T01:10:07;13.50;99.90
13817;DHT22;6979;52.116;5.286;2024-03-29T01:12:36;13.50;99.90
13817;DHT22;6979;52.116;5.286;2024-03-29T01:15:02;13.40;99.90
13817;DHT22;6979;52.116;5.286;2024-03-29T01:17:31;13.40;99.90
13817;DHT22;6979;52.116;5.286;2024-03-29T01:20:01;13.40;99.90
13817;DHT22;6979;52.116;5.286;2024-03-29T01:22:27;13.40;99.90
13817;DHT22;6979;52.116;5.286;2024-03-29T01:24:53;13.40;99.90
13817;DHT22;6979;52.116;5.286;2024-03-29T01:27:19;13.40;99.90
13817;DHT22;6979;52.116;5.286;2024-03-29T01:29:45;13.40;99.90
13817;DHT22;6979;52.116;5.286;2024-03-29T01:32:11;13.40;99.90
13817;DHT22;6979;52.116;5.286;2024-03-29T01:34:37;13.40;99.90
13817;DHT22;6979;52.116;5.286;2024-03-29T01:37:04;13.40;99.90
13817;DHT22;6979;52.116;5.286;2024-03-29T01:39:31;13.40;99.90
13817;DHT22;6979;52.116;5.286;2024-03-29T01:41:57;13.40;99.90
13817;DHT22;6979;52.116;5.286;2024-03-29T01:44:23;13.40;99.90
13817;DHT22;6979;52.116;5.286;2024-03-29T01:46:50;13.40;99.90
13817;DHT22;6979;52.116;5.286;2024-03-29T01:49:17;13.40;99.90
13817;DHT22;6979;52.116;5.286;2024-03-29T01:51:45;13.30;99.90
13817;DHT22;6979;52.116;5.286;2024-03-29T01:54:17;13.30;99.90
13817;DHT22;6979;52.116;5.286;2024-03-29T01:56:44;13.30;99.90
13817;DHT22;6979;52.116;5.286;2024-03-29T01:59:14;13.30;99.90
13817;DHT22;6979;52.116;5.286;2024-03-29T02:01:42;13.30;99.90
13817;DHT22;6979;52.116;5.286;2024-03-29T02:04:09;13.30;99.90
13817;DHT22;6979;52.116;5.286;2024-03-29T02:06:37;13.30;99.90
13817;DHT22;6979;52.116;5.286;2024-03-29T02:09:04;13.30;99.90
13817;DHT22;6979;52.116;5.286;2024-03-29T02:11:33;13.20;99.90
13817;DHT22;6979;52.116;5.286;2024-03-29T02:14:00;13.20;99.90
13817;DHT22;6979;52.116;5.286;2024-03-29T02:16:33;13.20;99.90
13817;DHT22;6979;52.116;5.286;2024-03-29T02:19:00;13.20;99.90
13817;DHT22;6979;52.116;5.286;2024-03-29T02:21:27;13.20;99.90
13817;DHT22;6979;52.116;5.286;2024-03-29T02:24:06;13.10;99.90
13817;DHT22;6979;52.116;5.286;2024-03-29T02:26:36;13.10;99.90
13817;DHT22;6979;52.116;5.286;2024-03-29T02:29:07;13.10;99.90
13817;DHT22;6979;52.116;5.286;2024-03-29T02:31:34;13.00;99.90
13817;DHT22;6979;52.116;5.286;2024-03-29T02:34:01;13.00;99.90
13817;DHT22;6979;52.116;5.286;2024-03-29T02:36:28;13.00;99.90
13817;DHT22;6979;52.116;5.286;2024-03-29T02:38:55;13.00;99.90
13817;DHT22;6979;52.116;5.286;2024-03-29T02:41:26;13.00;99.90
13817;DHT22;6979;52.116;5.286;2024-03-29T02:43:55;13.00;99.90
13817;DHT22;6979;52.116;5.286;2024-03-29T02:46:21;12.90;99.90
13817;DHT22;6979;52.116;5.286;2024-03-29T02:48:49;12.90;99.90
13817;DHT22;6979;52.116;5.286;2024-03-29T02:51:18;12.90;99.90
13817;DHT22;6979;52.116;5.286;2024-03-29T02:53:45;12.90;99.90
13817;DHT22;6979;52.116;5.286;2024-03-29T02:56:11;12.90;99.90
13817;DHT22;6979;52.116;5.286;2024-03-29T02:58:41;12.90;99.90
13817;DHT22;6979;52.116;5.286;2024-03-29T03:01:10;13.00;99.90
13817;DHT22;6979;52.116;5.286;2024-03-29T03:03:37;12.90;99.90
13817;DHT22;6979;52.116;5.286;2024-03-29T03:06:04;13.00;99.90
13817;DHT22;6979;52.116;5.286;2024-03-29T03:08:31;13.00;99.90
13817;DHT22;6979;52.116;5.286;2024-03-29T03:11:16;13.00;99.90
13817;DHT22;6979;52.116;5.286;2024-03-29T03:13:48;13.00;99.90
13817;DHT22;6979;52.116;5.286;2024-03-29T03:16:15;13.00;99.90
13817;DHT22;6979;52.116;5.286;2024-03-29T03:18:42;13.00;99.90
13817;DHT22;6979;52.116;5.286;2024-03-29T03:21:07;13.00;99.90
13817;DHT22;6979;52.116;5.286;2024-03-29T03:23:37;13.00;99.90
13817;DHT22;6979;52.116;5.286;2024-03-29T03:26:03;13.00;99.90
13817;DHT22;6979;52.116;5.286;2024-03-29T03:28:36;13.00;99.90
13817;DHT22;6979;52.116;5.286;2024-03-29T03:31:04;12.90;99.90
13817;DHT22;6979;52.116;5.286;2024-03-29T03:33:36;12.90;99.90
13817;DHT22;6979;52.116;5.286;2024-03-29T03:36:04;12.90;99.90
13817;DHT22;6979;52.116;5.286;2024-03-29T03:38:32;13.00;99.90
13817;DHT22;6979;52.116;5.286;2024-03-29T03:41:00;12.90;99.90
13817;DHT22;6979;52.116;5.286;2024-03-29T03:43:29;12.90;99.90
13817;DHT22;6979;52.116;5.286;2024-03-29T03:46:00;12.90;99.90
13817;DHT22;6979;52.116;5.286;2024-03-29T03:48:29;12.90;99.90
13817;DHT22;6979;52.116;5.286;2024-03-29T03:50:55;12.90;99.90
13817;DHT22;6979;52.116;5.286;2024-03-29T03:53:24;12.90;99.90
13817;DHT22;6979;52.116;5.286;2024-03-29T03:55:52;12.90;99.90
13817;DHT22;6979;52.116;5.286;2024-03-29T03:58:22;12.90;99.90
13817;DHT22;6979;52.116;5.286;2024-03-29T04:00:48;12.90;99.90
13817;DHT22;6979;52.116;5.286;2024-03-29T04:03:15;12.90;99.90
13817;DHT22;6979;52.116;5.286;2024-03-29T04:05:44;12.90;99.90
13817;DHT22;6979;52.116;5.286;2024-03-29T04:08:11;12.90;99.90
13817;DHT22;6979;52.116;5.286;2024-03-29T04:10:39;12.90;99.90
13817;DHT22;6979;52.116;5.286;2024-03-29T04:13:06;13.00;99.90
13817;DHT22;6979;52.116;5.286;2024-03-29T04:15:32;13.00;99.90
13817;DHT22;6979;52.116;5.286;2024-03-29T04:17:59;13.00;99.90
13817;DHT22;6979;52.116;5.286;2024-03-29T04:20:28;13.00;99.90
13817;DHT22;6979;52.116;5.286;2024-03-29T04:22:56;13.00;99.90
13817;DHT22;6979;52.116;5.286;2024-03-29T04:25:22;13.10;99.90
13817;DHT22;6979;52.116;5.286;2024-03-29T04:27:49;13.10;99.90
13817;DHT22;6979;52.116;5.286;2024-03-29T04:30:15;13.10;99.90
13817;DHT22;6979;52.116;5.286;2024-03-29T04:32:42;13.10;99.90
13817;DHT22;6979;52.116;5.286;2024-03-29T04:35:08;13.20;99.90
13817;DHT22;6979;52.116;5.286;2024-03-29T04:37:35;13.20;99.90
13817;DHT22;6979;52.116;5.286;2024-03-29T04:40:05;13.20;99.90
13817;DHT22;6979;52.116;5.286;2024-03-29T04:42:32;13.20;99.90
13817;DHT22;6979;52.116;5.286;2024-03-29T04:44:58;13.30;99.90
13817;DHT22;6979;52.116;5.286;2024-03-29T04:47:28;13.30;99.90
13817;DHT22;6979;52.116;5.286;2024-03-29T04:49:55;13.30;99.90
13817;DHT22;6979;52.116;5.286;2024-03-29T04:52:22;13.30;99.90
13817;DHT22;6979;52.116;5.286;2024-03-29T04:54:51;13.30;99.90
13817;DHT22;6979;52.116;5.286;2024-03-29T04:57:19;13.40;99.90
13817;DHT22;6979;52.116;5.286;2024-03-29T04:59:46;13.40;99.90
13817;DHT22;6979;52.116;5.286;2024-03-29T05:02:13;13.40;99.90
13817;DHT22;6979;52.116;5.286;2024-03-29T05:04:40;13.40;99.90
13817;DHT22;6979;52.116;5.286;2024-03-29T05:07:08;13.40;99.90
13817;DHT22;6979;52.116;5.286;2024-03-29T05:09:35;13.40;99.90
13817;DHT22;6979;52.116;5.286;2024-03-29T05:12:02;13.40;99.90
13817;DHT22;6979;52.116;5.286;2024-03-29T05:14:35;13.40;99.90
13817;DHT22;6979;52.116;5.286;2024-03-29T05:17:07;13.40;99.90
13817;DHT22;6979;52.116;5.286;2024-03-29T05:19:37;13.40;99.90
13817;DHT22;6979;52.116;5.286;2024-03-29T05:22:04;13.30;99.90
13817;DHT22;6979;52.116;5.286;2024-03-29T05:24:32;13.30;99.90
13817;DHT22;6979;52.116;5.286;2024-03-29T05:26:58;13.30;99.90
13817;DHT22;6979;52.116;5.286;2024-03-29T05:29:26;13.30;99.90
13817;DHT22;6979;52.116;5.286;2024-03-29T05:31:54;13.30;99.90
13817;DHT22;6979;52.116;5.286;2024-03-29T05:34:21;13.20;99.90
13817;DHT22;6979;52.116;5.286;2024-03-29T05:36:47;13.20;99.90
13817;DHT22;6979;52.116;5.286;2024-03-29T05:39:15;13.10;99.90
13817;DHT22;6979;52.116;5.286;2024-03-29T05:41:46;13.10;99.90
13817;DHT22;6979;52.116;5.286;2024-03-29T05:44:13;13.00;99.90
13817;DHT22;6979;52.116;5.286;2024-03-29T05:46:41;12.90;99.90
13817;DHT22;6979;52.116;5.286;2024-03-29T05:49:09;12.80;99.90
13817;DHT22;6979;52.116;5.286;2024-03-29T05:51:36;12.70;99.90
13817;DHT22;6979;52.116;5.286;2024-03-29T05:54:03;12.70;99.90
13817;DHT22;6979;52.116;5.286;2024-03-29T05:56:30;12.60;99.90
13817;DHT22;6979;52.116;5.286;2024-03-29T05:58:57;12.50;99.90
13817;DHT22;6979;52.116;5.286;2024-03-29T06:01:24;12.50;99.90
13817;DHT22;6979;52.116;5.286;2024-03-29T06:03:51;12.40;99.90
13817;DHT22;6979;52.116;5.286;2024-03-29T06:06:21;12.40;99.90
13817;DHT22;6979;52.116;5.286;2024-03-29T06:08:50;12.40;99.90
13817;DHT22;6979;52.116;5.286;2024-03-29T06:11:19;12.30;99.90
13817;DHT22;6979;52.116;5.286;2024-03-29T06:13:45;12.30;99.90
13817;DHT22;6979;52.116;5.286;2024-03-29T06:16:32;12.30;99.90
13817;DHT22;6979;52.116;5.286;2024-03-29T06:19:16;12.30;99.90
13817;DHT22;6979;52.116;5.286;2024-03-29T06:21:44;12.30;99.90
13817;DHT22;6979;52.116;5.286;2024-03-29T06:24:13;12.30;99.90
13817;DHT22;6979;52.116;5.286;2024-03-29T06:26:41;12.30;99.90
13817;DHT22;6979;52.116;5.286;2024-03-29T06:29:08;12.30;99.90
13817;DHT22;6979;52.116;5.286;2024-03-29T06:31:35;12.40;99.90
13817;DHT22;6979;52.116;5.286;2024-03-29T06:34:02;12.40;99.90
13817;DHT22;6979;52.116;5.286;2024-03-29T06:36:29;12.40;99.90
13817;DHT22;6979;52.116;5.286;2024-03-29T06:39:04;12.40;99.90
13817;DHT22;6979;52.116;5.286;2024-03-29T06:41:30;12.40;99.90
13817;DHT22;6979;52.116;5.286;2024-03-29T06:44:00;12.50;99.90
13817;DHT22;6979;52.116;5.286;2024-03-29T06:46:27;12.50;99.90
13817;DHT22;6979;52.116;5.286;2024-03-29T06:48:54;12.50;99.90
13817;DHT22;6979;52.116;5.286;2024-03-29T06:51:21;12.50;99.90
13817;DHT22;6979;52.116;5.286;2024-03-29T06:53:48;12.50;99.90
13817;DHT22;6979;52.116;5.286;2024-03-29T06:56:16;12.50;99.90
13817;DHT22;6979;52.116;5.286;2024-03-29T06:58:51;12.50;99.90
13817;DHT22;6979;52.116;5.286;2024-03-29T07:01:18;12.50;99.90
13817;DHT22;6979;52.116;5.286;2024-03-29T07:03:46;12.50;99.90
13817;DHT22;6979;52.116;5.286;2024-03-29T07:06:16;12.50;99.90
13817;DHT22;6979;52.116;5.286;2024-03-29T07:08:43;12.50;99.90
13817;DHT22;6979;52.116;5.286;2024-03-29T07:11:11;12.50;99.90
13817;DHT22;6979;52.116;5.286;2024-03-29T07:13:39;12.50;99.90
13817;DHT22;6979;52.116;5.286;2024-03-29T07:16:09;12.50;99.90
13817;DHT22;6979;52.116;5.286;2024-03-29T07:18:37;12.50;99.90
13817;DHT22;6979;52.116;5.286;2024-03-29T07:21:04;12.50;99.90
13817;DHT22;6979;52.116;5.286;2024-03-29T07:23:32;12.50;99.90
13817;DHT22;6979;52.116;5.286;2024-03-29T07:26:00;12.60;99.90
13817;DHT22;6979;52.116;5.286;2024-03-29T07:28:30;12.60;99.90
13817;DHT22;6979;52.116;5.286;2024-03-29T07:31:05;12.60;99.90
13817;DHT22;6979;52.116;5.286;2024-03-29T07:33:36;12.70;99.90
13817;DHT22;6979;52.116;5.286;2024-03-29T07:36:04;12.70;99.90
13817;DHT22;6979;52.116;5.286;2024-03-29T07:38:32;12.70;99.90
13817;DHT22;6979;52.116;5.286;2024-03-29T07:41:00;12.80;99.90
13817;DHT22;6979;52.116;5.286;2024-03-29T07:43:37;12.80;99.90
13817;DHT22;6979;52.116;5.286;2024-03-29T07:46:06;12.80;99.90
13817;DHT22;6979;52.116;5.286;2024-03-29T07:48:35;12.90;99.90
13817;DHT22;6979;52.116;5.286;2024-03-29T07:51:02;12.90;99.90
13817;DHT22;6979;52.116;5.286;2024-03-29T07:53:29;12.90;99.90
13817;DHT22;6979;52.116;5.286;2024-03-29T07:55:56;13.00;99.90
13817;DHT22;6979;52.116;5.286;2024-03-29T07:58:23;13.10;99.90
13817;DHT22;6979;52.116;5.286;2024-03-29T08:00:51;13.10;99.90
13817;DHT22;6979;52.116;5.286;2024-03-29T08:03:20;13.10;99.90
13817;DHT22;6979;52.116;5.286;2024-03-29T08:05:56;13.20;99.90
13817;DHT22;6979;52.116;5.286;2024-03-29T08:08:23;13.30;99.90
13817;DHT22;6979;52.116;5.286;2024-03-29T08:10:50;13.30;99.90
13817;DHT22;6979;52.116;5.286;2024-03-29T08:13:17;13.40;99.90
13817;DHT22;6979;52.116;5.286;2024-03-29T08:15:48;13.40;99.90
13817;DHT22;6979;52.116;5.286;2024-03-29T08:18:14;13.40;99.90
13817;DHT22;6979;52.116;5.286;2024-03-29T08:20:43;13.50;99.90
13817;DHT22;6979;52.116;5.286;2024-03-29T08:23:12;13.50;99.90
13817;DHT22;6979;52.116;5.286;2024-03-29T08:25:41;13.60;99.90
13817;DHT22;6979;52.116;5.286;2024-03-29T08:28:08;13.60;99.90
13817;DHT22;6979;52.116;5.286;2024-03-29T08:30:36;13.70;99.90
13817;DHT22;6979;52.116;5.286;2024-03-29T08:33:03;13.70;99.90
13817;DHT22;6979;52.116;5.286;2024-03-29T08:35:33;13.80;99.90
13817;DHT22;6979;52.116;5.286;2024-03-29T08:38:04;13.80;99.90
13817;DHT22;6979;52.116;5.286;2024-03-29T08:40:34;13.80;99.90
13817;DHT22;6979;52.116;5.286;2024-03-29T08:43:04;13.90;99.90
13817;DHT22;6979;52.116;5.286;2024-03-29T08:45:31;13.90;99.90
13817;DHT22;6979;52.116;5.286;2024-03-29T08:47:58;13.80;99.90
13817;DHT22;6979;52.116;5.286;2024-03-29T08:50:25;13.90;99.90
13817;DHT22;6979;52.116;5.286;2024-03-29T08:52:52;14.00;99.90
13817;DHT22;6979;52.116;5.286;2024-03-29T08:55:20;14.00;99.90
13817;DHT22;6979;52.116;5.286;2024-03-29T08:57:47;14.10;99.90
13817;DHT22;6979;52.116;5.286;2024-03-29T09:00:17;14.20;99.90
13817;DHT22;6979;52.116;5.286;2024-03-29T09:02:46;14.20;99.90
13817;DHT22;6979;52.116;5.286;2024-03-29T09:05:12;14.20;99.90
13817;DHT22;6979;52.116;5.286;2024-03-29T09:07:42;14.30;99.90
13817;DHT22;6979;52.116;5.286;2024-03-29T09:10:09;14.30;99.90
13817;DHT22;6979;52.116;5.286;2024-03-29T09:12:41;14.40;99.90
13817;DHT22;6979;52.116;5.286;2024-03-29T09:15:08;14.50;99.90
13817;DHT22;6979;52.116;5.286;2024-03-29T09:17:39;14.50;99.90
13817;DHT22;6979;52.116;5.286;2024-03-29T09:20:06;14.60;99.90
13817;DHT22;6979;52.116;5.286;2024-03-29T09:22:34;14.70;99.90
13817;DHT22;6979;52.116;5.286;2024-03-29T09:25:03;14.80;99.90
13817;DHT22;6979;52.116;5.286;2024-03-29T09:27:30;14.80;99.90
13817;DHT22;6979;52.116;5.286;2024-03-29T09:30:00;14.80;99.90
13817;DHT22;6979;52.116;5.286;2024-03-29T09:32:31;14.90;99.90
13817;DHT22;6979;52.116;5.286;2024-03-29T09:34:58;15.00;99.90
13817;DHT22;6979;52.116;5.286;2024-03-29T09:37:25;15.10;99.90
13817;DHT22;6979;52.116;5.286;2024-03-29T09:39:52;15.20;99.90
13817;DHT22;6979;52.116;5.286;2024-03-29T09:42:22;15.30;99.90
13817;DHT22;6979;52.116;5.286;2024-03-29T09:44:53;15.40;99.90
13817;DHT22;6979;52.116;5.286;2024-03-29T09:47:23;15.50;99.90
13817;DHT22;6979;52.116;5.286;2024-03-29T09:49:52;15.60;99.90
13817;DHT22;6979;52.116;5.286;2024-03-29T09:52:20;15.70;99.90
13817;DHT22;6979;52.116;5.286;2024-03-29T09:54:47;15.80;99.90
13817;DHT22;6979;52.116;5.286;2024-03-29T09:57:14;15.70;99.90
13817;DHT22;6979;52.116;5.286;2024-03-29T09:59:43;15.70;99.90
13817;DHT22;6979;52.116;5.286;2024-03-29T10:02:14;15.70;99.90
13817;DHT22;6979;52.116;5.286;2024-03-29T10:04:45;15.70;99.90
13817;DHT22;6979;52.116;5.286;2024-03-29T10:07:15;15.60;99.90
13817;DHT22;6979;52.116;5.286;2024-03-29T10:09:43;15.60;99.90
13817;DHT22;6979;52.116;5.286;2024-03-29T10:12:16;15.60;99.90
13817;DHT22;6979;52.116;5.286;2024-03-29T10:14:45;15.70;99.90
13817;DHT22;6979;52.116;5.286;2024-03-29T10:17:16;16.00;99.90
13817;DHT22;6979;52.116;5.286;2024-03-29T10:19:45;16.40;99.90
13817;DHT22;6979;52.116;5.286;2024-03-29T10:22:13;16.80;99.90
13817;DHT22;6979;52.116;5.286;2024-03-29T10:24:43;17.20;99.90
13817;DHT22;6979;52.116;5.286;2024-03-29T10:27:09;17.40;99.90
13817;DHT22;6979;52.116;5.286;2024-03-29T10:29:36;17.60;99.90
13817;DHT22;6979;52.116;5.286;2024-03-29T10:32:09;17.80;99.90
13817;DHT22;6979;52.116;5.286;2024-03-29T10:34:38;18.00;99.90
13817;DHT22;6979;52.116;5.286;2024-03-29T10:37:07;18.40;99.90
13817;DHT22;6979;52.116;5.286;2024-03-29T10:39:34;18.90;99.90
13817;DHT22;6979;52.116;5.286;2024-03-29T10:42:02;19.30;99.90
13817;DHT22;6979;52.116;5.286;2024-03-29T10:44:29;19.70;99.90
13817;DHT22;6979;52.116;5.286;2024-03-29T10:46:57;19.90;99.90
13817;DHT22;6979;52.116;5.286;2024-03-29T10:49:24;20.00;99.90
13817;DHT22;6979;52.116;5.286;2024-03-29T10:51:55;19.90;99.90
13817;DHT22;6979;52.116;5.286;2024-03-29T10:54:26;19.90;99.90
13817;DHT22;6979;52.116;5.286;2024-03-29T10:56:59;19.90;99.90
13817;DHT22;6979;52.116;5.286;2024-03-29T10:59:31;19.80;99.90
13817;DHT22;6979;52.116;5.286;2024-03-29T11:02:06;19.70;99.90
13817;DHT22;6979;52.116;5.286;2024-03-29T11:04:37;19.40;99.90
13817;DHT22;6979;52.116;5.286;2024-03-29T11:07:08;19.20;99.90
13817;DHT22;6979;52.116;5.286;2024-03-29T11:09:40;19.00;99.90
13817;DHT22;6979;52.116;5.286;2024-03-29T11:12:09;18.70;99.90
13817;DHT22;6979;52.116;5.286;2024-03-29T11:14:43;18.50;99.90
13817;DHT22;6979;52.116;5.286;2024-03-29T11:17:13;18.30;99.90
13817;DHT22;6979;52.116;5.286;2024-03-29T11:19:40;18.20;99.90
13817;DHT22;6979;52.116;5.286;2024-03-29T11:22:09;18.00;99.90
13817;DHT22;6979;52.116;5.286;2024-03-29T11:24:40;18.00;99.90
13817;DHT22;6979;52.116;5.286;2024-03-29T11:27:11;18.10;99.90
13817;DHT22;6979;52.116;5.286;2024-03-29T11:29:42;18.10;99.90
13817;DHT22;6979;52.116;5.286;2024-03-29T11:32:14;18.20;99.90
13817;DHT22;6979;52.116;5.286;2024-03-29T11:34:44;18.20;99.90
13817;DHT22;6979;52.116;5.286;2024-03-29T11:37:12;18.20;99.90
13817;DHT22;6979;52.116;5.286;2024-03-29T11:39:47;18.20;99.90
13817;DHT22;6979;52.116;5.286;2024-03-29T11:42:15;18.20;99.90
13817;DHT22;6979;52.116;5.286;2024-03-29T11:44:46;18.30;99.90
13817;DHT22;6979;52.116;5.286;2024-03-29T11:47:13;18.40;99.90
13817;DHT22;6979;52.116;5.286;2024-03-29T11:49:44;18.50;99.90
13817;DHT22;6979;52.116;5.286;2024-03-29T11:52:18;18.60;99.90
13817;DHT22;6979;52.116;5.286;2024-03-29T11:54:46;18.70;99.90
13817;DHT22;6979;52.116;5.286;2024-03-29T11:57:13;18.70;99.90
13817;DHT22;6979;52.116;5.286;2024-03-29T11:59:40;18.70;99.90
13817;DHT22;6979;52.116;5.286;2024-03-29T12:02:10;18.80;99.90
13817;DHT22;6979;52.116;5.286;2024-03-29T12:04:40;18.80;99.90
13817;DHT22;6979;52.116;5.286;2024-03-29T12:07:06;18.80;99.90
13817;DHT22;6979;52.116;5.286;2024-03-29T12:09:33;18.70;99.90
13817;DHT22;6979;52.116;5.286;2024-03-29T12:12:05;18.70;99.90
13817;DHT22;6979;52.116;5.286;2024-03-29T12:14:35;18.70;99.90
13817;DHT22;6979;52.116;5.286;2024-03-29T12:17:09;18.70;99.90
13817;DHT22;6979;52.116;5.286;2024-03-29T12:19:36;18.70;99.90
13817;DHT22;6979;52.116;5.286;2024-03-29T12:22:04;18.70;99.90
13817;DHT22;6979;52.116;5.286;2024-03-29T12:24:32;18.60;99.90
13817;DHT22;6979;52.116;5.286;2024-03-29T12:26:59;18.60;99.90
13817;DHT22;6979;52.116;5.286;2024-03-29T12:29:27;18.50;99.90
13817;DHT22;6979;52.116;5.286;2024-03-29T12:32:03;18.50;99.90
13817;DHT22;6979;52.116;5.286;2024-03-29T12:34:31;18.40;99.90
13817;DHT22;6979;52.116;5.286;2024-03-29T12:36:58;18.40;99.90
13817;DHT22;6979;52.116;5.286;2024-03-29T12:39:25;18.30;99.90
13817;DHT22;6979;52.116;5.286;2024-03-29T12:41:52;18.30;99.90
13817;DHT22;6979;52.116;5.286;2024-03-29T12:44:25;18.30;99.90
13817;DHT22;6979;52.116;5.286;2024-03-29T12:46:53;18.30;99.90
13817;DHT22;6979;52.116;5.286;2024-03-29T12:49:27;18.40;99.90
13817;DHT22;6979;52.116;5.286;2024-03-29T12:51:56;18.40;99.90
13817;DHT22;6979;52.116;5.286;2024-03-29T12:54:25;18.50;99.90
13817;DHT22;6979;52.116;5.286;2024-03-29T12:56:53;18.50;99.90
13817;DHT22;6979;52.116;5.286;2024-03-29T12:59:20;18.50;99.90
13817;DHT22;6979;52.116;5.286;2024-03-29T13:01:49;18.60;99.90
13817;DHT22;6979;52.116;5.286;2024-03-29T13:04:24;18.60;99.90
13817;DHT22;6979;52.116;5.286;2024-03-29T13:07:02;18.60;99.90
13817;DHT22;6979;52.116;5.286;2024-03-29T13:09:29;18.60;99.90
13817;DHT22;6979;52.116;5.286;2024-03-29T13:11:56;18.60;99.90
13817;DHT22;6979;52.116;5.286;2024-03-29T13:14:23;18.60;99.90
13817;DHT22;6979;52.116;5.286;2024-03-29T13:16:50;18.60;99.90
13817;DHT22;6979;52.116;5.286;2024-03-29T13:19:17;18.60;99.90
13817;DHT22;6979;52.116;5.286;2024-03-29T13:21:46;18.60;99.90
13817;DHT22;6979;52.116;5.286;2024-03-29T13:24:14;18.70;99.90
13817;DHT22;6979;52.116;5.286;2024-03-29T13:26:41;18.70;99.90
13817;DHT22;6979;52.116;5.286;2024-03-29T13:29:08;18.80;99.90
13817;DHT22;6979;52.116;5.286;2024-03-29T13:31:38;18.90;99.90
13817;DHT22;6979;52.116;5.286;2024-03-29T13:34:08;19.00;99.90
13817;DHT22;6979;52.116;5.286;2024-03-29T13:36:38;19.00;99.90
13817;DHT22;6979;52.116;5.286;2024-03-29T13:39:10;19.10;99.90
13817;DHT22;6979;52.116;5.286;2024-03-29T13:41:39;19.10;99.90
13817;DHT22;6979;52.116;5.286;2024-03-29T13:44:06;19.20;99.90
13817;DHT22;6979;52.116;5.286;2024-03-29T13:46:33;19.20;99.90
13817;DHT22;6979;52.116;5.286;2024-03-29T13:49:01;19.20;99.90
13817;DHT22;6979;52.116;5.286;2024-03-29T13:51:28;19.30;99.90
13817;DHT22;6979;52.116;5.286;2024-03-29T13:53:55;19.30;99.90
13817;DHT22;6979;52.116;5.286;2024-03-29T13:56:24;19.30;99.90
13817;DHT22;6979;52.116;5.286;2024-03-29T13:58:50;19.40;99.90
13817;DHT22;6979;52.116;5.286;2024-03-29T14:01:17;19.40;99.90
13817;DHT22;6979;52.116;5.286;2024-03-29T14:03:44;19.30;99.90
13817;DHT22;6979;52.116;5.286;2024-03-29T14:06:11;19.30;99.90
13817;DHT22;6979;52.116;5.286;2024-03-29T14:08:38;19.20;99.90
13817;DHT22;6979;52.116;5.286;2024-03-29T14:11:05;19.20;99.90
13817;DHT22;6979;52.116;5.286;2024-03-29T14:13:33;19.10;99.90
13817;DHT22;6979;52.116;5.286;2024-03-29T14:16:00;19.10;99.90
13817;DHT22;6979;52.116;5.286;2024-03-29T14:18:29;19.10;99.90
13817;DHT22;6979;52.116;5.286;2024-03-29T14:20:57;19.10;99.90
13817;DHT22;6979;52.116;5.286;2024-03-29T14:23:23;19.10;99.90
13817;DHT22;6979;52.116;5.286;2024-03-29T14:25:50;19.10;99.90
13817;DHT22;6979;52.116;5.286;2024-03-29T14:28:17;19.20;99.90
13817;DHT22;6979;52.116;5.286;2024-03-29T14:30:46;19.20;99.90
13817;DHT22;6979;52.116;5.286;2024-03-29T14:33:12;19.20;99.90
13817;DHT22;6979;52.116;5.286;2024-03-29T14:35:39;19.20;99.90
13817;DHT22;6979;52.116;5.286;2024-03-29T14:38:06;19.30;99.90
13817;DHT22;6979;52.116;5.286;2024-03-29T14:40:33;19.30;99.90
13817;DHT22;6979;52.116;5.286;2024-03-29T14:43:00;19.30;99.90
13817;DHT22;6979;52.116;5.286;2024-03-29T14:45:27;19.30;99.70
13817;DHT22;6979;52.116;5.286;2024-03-29T14:47:55;19.30;99.90
13817;DHT22;6979;52.116;5.286;2024-03-29T14:50:25;19.30;99.90
13817;DHT22;6979;52.116;5.286;2024-03-29T14:52:52;19.40;99.90
13817;DHT22;6979;52.116;5.286;2024-03-29T14:55:19;19.30;99.90
13817;DHT22;6979;52.116;5.286;2024-03-29T14:57:48;19.30;99.90
13817;DHT22;6979;52.116;5.286;2024-03-29T15:00:18;19.40;99.80
13817;DHT22;6979;52.116;5.286;2024-03-29T15:02:45;19.40;99.20
13817;DHT22;6979;52.116;5.286;2024-03-29T15:05:14;19.40;99.20
13817;DHT22;6979;52.116;5.286;2024-03-29T15:07:40;19.40;99.10
13817;DHT22;6979;52.116;5.286;2024-03-29T15:10:08;19.40;99.10
13817;DHT22;6979;52.116;5.286;2024-03-29T15:12:36;19.30;98.70
13817;DHT22;6979;52.116;5.286;2024-03-29T15:15:04;19.30;98.90
13817;DHT22;6979;52.116;5.286;2024-03-29T15:17:32;19.30;98.90
13817;DHT22;6979;52.116;5.286;2024-03-29T15:19:59;19.30;98.90
13817;DHT22;6979;52.116;5.286;2024-03-29T15:22:28;19.30;99.10
13817;DHT22;6979;52.116;5.286;2024-03-29T15:24:55;19.30;99.10
13817;DHT22;6979;52.116;5.286;2024-03-29T15:27:25;19.30;99.00
13817;DHT22;6979;52.116;5.286;2024-03-29T15:30:21;19.20;99.20
13817;DHT22;6979;52.116;5.286;2024-03-29T15:32:47;19.20;99.20
13817;DHT22;6979;52.116;5.286;2024-03-29T15:35:14;19.20;99.30
13817;DHT22;6979;52.116;5.286;2024-03-29T15:37:42;19.20;99.20
13817;DHT22;6979;52.116;5.286;2024-03-29T15:40:12;19.20;99.40
13817;DHT22;6979;52.116;5.286;2024-03-29T15:42:39;19.10;99.60
13817;DHT22;6979;52.116;5.286;2024-03-29T15:45:08;19.10;99.60
13817;DHT22;6979;52.116;5.286;2024-03-29T15:47:35;19.10;99.70
13817;DHT22;6979;52.116;5.286;2024-03-29T15:50:02;19.10;99.80
13817;DHT22;6979;52.116;5.286;2024-03-29T15:52:29;19.10;99.90